sensor_id;sensor_type;location;lat;lon;timestamp;pressure;altitude;pressure_sealevel;temperature;humidity
64294;BME280;50636;45.596;5.258;2023-02-28T00:00:21;98863.66;;;4.65;45.08
64294;BME280;50636;45.596;5.258;2023-02-28T00:02:57;98870.16;;;4.60;45.13
64294;BME280;50636;45.596;5.258;2023-02-28T00:05:25;98868.41;;;4.69;45.45
64294;BME280;50636;45.596;5.258;2023-02-28T00:07:56;98870.53;;;4.82;45.00
64294;BME280;50636;45.596;5.258;2023-02-28T00:10:30;98868.63;;;4.92;45.15
64294;BME280;50636;45.596;5.258;2023-02-28T00:13:40;98874.69;;;5.09;44.90
64294;BME280;50636;45.596;5.258;2023-02-28T00:16:09;98865.59;;;5.22;44.89
64294;BME280;50636;45.596;5.258;2023-02-28T00:18:42;98866.88;;;5.34;44.37
64294;BME280;50636;45.596;5.258;2023-02-28T00:21:13;98867.84;;;5.41;44.29
64294;BME280;50636;45.596;5.258;2023-02-28T00:23:52;98866.25;;;5.32;44.60
64294;BME280;50636;45.596;5.258;2023-02-28T00:26:22;98867.19;;;5.31;43.55
64294;BME280;50636;45.596;5.258;2023-02-28T00:29:09;98875.16;;;5.21;43.73
64294;BME280;50636;45.596;5.258;2023-02-28T00:31:52;98877.56;;;4.90;43.51
64294;BME280;50636;45.596;5.258;2023-02-28T00:34:18;98878.28;;;4.66;43.99
64294;BME280;50636;45.596;5.258;2023-02-28T00:37:09;98880.50;;;4.52;44.16
64294;BME280;50636;45.596;5.258;2023-02-28T00:39:43;98883.94;;;4.53;44.32
64294;BME280;50636;45.596;5.258;2023-02-28T00:42:11;98878.75;;;4.53;44.33
64294;BME280;50636;45.596;5.258;2023-02-28T00:44:57;98882.19;;;4.62;45.22
64294;BME280;50636;45.596;5.258;2023-02-28T00:47:26;98898.63;;;4.78;44.45
64294;BME280;50636;45.596;5.258;2023-02-28T00:49:58;98890.56;;;4.90;44.04
64294;BME280;50636;45.596;5.258;2023-02-28T00:52:26;98882.59;;;4.91;43.61
64294;BME280;50636;45.596;5.258;2023-02-28T00:54:54;98887.97;;;4.98;43.94
64294;BME280;50636;45.596;5.258;2023-02-28T00:57:20;98892.06;;;5.09;44.41
64294;BME280;50636;45.596;5.258;2023-02-28T00:59:48;98884.91;;;5.19;44.08
64294;BME280;50636;45.596;5.258;2023-02-28T01:02:15;98880.41;;;5.37;44.28
64294;BME280;50636;45.596;5.258;2023-02-28T01:04:43;98869.81;;;5.55;43.94
64294;BME280;50636;45.596;5.258;2023-02-28T01:07:10;98879.88;;;5.67;44.12
64294;BME280;50636;45.596;5.258;2023-02-28T01:09:37;98878.91;;;5.76;43.83
64294;BME280;50636;45.596;5.258;2023-02-28T01:12:05;98879.72;;;5.85;43.38
64294;BME280;50636;45.596;5.258;2023-02-28T01:14:33;98888.19;;;5.87;43.37
64294;BME280;50636;45.596;5.258;2023-02-28T01:17:01;98884.59;;;5.88;43.02
64294;BME280;50636;45.596;5.258;2023-02-28T01:19:43;98882.31;;;5.85;42.75
64294;BME280;50636;45.596;5.258;2023-02-28T01:22:14;98873.53;;;5.77;42.70
64294;BME280;50636;45.596;5.258;2023-02-28T01:24:56;98874.19;;;5.71;42.76
64294;BME280;50636;45.596;5.258;2023-02-28T01:27:35;98882.34;;;5.76;43.86
64294;BME280;50636;45.596;5.258;2023-02-28T01:30:13;98884.25;;;5.91;42.83
64294;BME280;50636;45.596;5.258;2023-02-28T01:32:46;98884.75;;;6.03;43.06
64294;BME280;50636;45.596;5.258;2023-02-28T01:35:22;98890.94;;;6.10;42.30
64294;BME280;50636;45.596;5.258;2023-02-28T01:37:53;98882.47;;;5.99;42.16
64294;BME280;50636;45.596;5.258;2023-02-28T01:40:34;98886.22;;;5.97;43.56
64294;BME280;50636;45.596;5.258;2023-02-28T01:49:31;98893.72;;;6.08;43.06
64294;BME280;50636;45.596;5.258;2023-02-28T01:52:04;98891.75;;;6.18;42.99
64294;BME280;50636;45.596;5.258;2023-02-28T01:54:50;98886.16;;;6.22;43.02
64294;BME280;50636;45.596;5.258;2023-02-28T01:58:10;98891.06;;;6.25;43.10
64294;BME280;50636;45.596;5.258;2023-02-28T02:00:36;98879.63;;;6.42;42.77
64294;BME280;50636;45.596;5.258;2023-02-28T02:03:14;98875.94;;;6.59;42.58
64294;BME280;50636;45.596;5.258;2023-02-28T02:06:18;98874.25;;;6.75;42.18
64294;BME280;50636;45.596;5.258;2023-02-28T02:08:55;98884.31;;;6.78;42.05
64294;BME280;50636;45.596;5.258;2023-02-28T02:11:34;98878.66;;;6.74;41.83
64294;BME280;50636;45.596;5.258;2023-02-28T02:14:21;98875.75;;;6.69;42.20
64294;BME280;50636;45.596;5.258;2023-02-28T02:17:38;98880.94;;;6.30;41.90
64294;BME280;50636;45.596;5.258;2023-02-28T02:30:01;98883.00;;;5.37;43.77
64294;BME280;50636;45.596;5.258;2023-02-28T02:38:50;98871.59;;;5.88;43.17
64294;BME280;50636;45.596;5.258;2023-02-28T02:41:52;98881.34;;;6.02;43.47
64294;BME280;50636;45.596;5.258;2023-02-28T02:47:58;98879.53;;;6.11;43.18
64294;BME280;50636;45.596;5.258;2023-02-28T02:50:38;98877.44;;;5.73;43.12
64294;BME280;50636;45.596;5.258;2023-02-28T02:53:40;98872.09;;;5.58;44.61
64294;BME280;50636;45.596;5.258;2023-02-28T02:56:44;98867.84;;;5.74;44.79
64294;BME280;50636;45.596;5.258;2023-02-28T02:59:53;98873.72;;;5.76;44.25
64294;BME280;50636;45.596;5.258;2023-02-28T03:02:42;98867.53;;;5.52;43.33
64294;BME280;50636;45.596;5.258;2023-02-28T03:05:28;98881.50;;;5.18;43.99
64294;BME280;50636;45.596;5.258;2023-02-28T03:08:28;98887.66;;;5.01;44.15
64294;BME280;50636;45.596;5.258;2023-02-28T03:11:12;98879.81;;;4.93;44.79
64294;BME280;50636;45.596;5.258;2023-02-28T03:17:45;98880.94;;;4.82;45.25
64294;BME280;50636;45.596;5.258;2023-02-28T03:27:42;98880.41;;;5.54;44.14
64294;BME280;50636;45.596;5.258;2023-02-28T03:31:22;98883.25;;;4.93;45.15
64294;BME280;50636;45.596;5.258;2023-02-28T03:34:59;98881.03;;;4.64;45.32
64294;BME280;50636;45.596;5.258;2023-02-28T03:37:42;98890.75;;;4.54;45.19
64294;BME280;50636;45.596;5.258;2023-02-28T03:40:15;98888.66;;;4.57;46.05
64294;BME280;50636;45.596;5.258;2023-02-28T03:43:24;98883.63;;;4.56;45.74
64294;BME280;50636;45.596;5.258;2023-02-28T03:46:36;98882.06;;;4.71;46.22
64294;BME280;50636;45.596;5.258;2023-02-28T03:49:45;98889.56;;;4.91;46.18
64294;BME280;50636;45.596;5.258;2023-02-28T03:52:53;98892.25;;;5.15;45.84
64294;BME280;50636;45.596;5.258;2023-02-28T03:56:05;98891.44;;;5.31;45.59
64294;BME280;50636;45.596;5.258;2023-02-28T04:02:13;98896.47;;;5.25;45.81
64294;BME280;50636;45.596;5.258;2023-02-28T04:04:49;98891.25;;;5.25;45.66
64294;BME280;50636;45.596;5.258;2023-02-28T04:07:18;98902.50;;;5.33;45.07
64294;BME280;50636;45.596;5.258;2023-02-28T04:10:17;98898.56;;;5.21;45.22
64294;BME280;50636;45.596;5.258;2023-02-28T04:12:44;98900.84;;;5.16;45.83
64294;BME280;50636;45.596;5.258;2023-02-28T04:15:18;98904.22;;;4.92;44.73
64294;BME280;50636;45.596;5.258;2023-02-28T04:18:03;98912.38;;;4.63;45.64
64294;BME280;50636;45.596;5.258;2023-02-28T04:20:41;98917.22;;;4.49;45.88
64294;BME280;50636;45.596;5.258;2023-02-28T04:23:27;98914.34;;;4.00;46.28
64294;BME280;50636;45.596;5.258;2023-02-28T04:26:05;98920.03;;;3.77;47.25
64294;BME280;50636;45.596;5.258;2023-02-28T04:28:42;98927.91;;;3.50;47.82
64294;BME280;50636;45.596;5.258;2023-02-28T04:31:17;98922.97;;;3.38;48.42
64294;BME280;50636;45.596;5.258;2023-02-28T04:33:44;98931.34;;;3.50;48.45
64294;BME280;50636;45.596;5.258;2023-02-28T04:36:27;98935.69;;;3.68;48.73
64294;BME280;50636;45.596;5.258;2023-02-28T04:38:59;98931.19;;;3.96;48.78
64294;BME280;50636;45.596;5.258;2023-02-28T04:41:35;98924.91;;;4.25;48.84
64294;BME280;50636;45.596;5.258;2023-02-28T04:44:07;98927.41;;;4.43;48.16
64294;BME280;50636;45.596;5.258;2023-02-28T04:46:50;98923.75;;;4.53;47.77
64294;BME280;50636;45.596;5.258;2023-02-28T04:49:28;98921.63;;;4.23;46.84
64294;BME280;50636;45.596;5.258;2023-02-28T04:52:02;98920.03;;;3.77;47.87
64294;BME280;50636;45.596;5.258;2023-02-28T04:54:29;98924.94;;;3.63;48.22
64294;BME280;50636;45.596;5.258;2023-02-28T04:57:06;98931.09;;;3.44;48.24
64294;BME280;50636;45.596;5.258;2023-02-28T04:59:36;98932.34;;;3.39;48.19
64294;BME280;50636;45.596;5.258;2023-02-28T05:02:12;98934.31;;;3.10;48.90
64294;BME280;50636;45.596;5.258;2023-02-28T05:04:42;98933.84;;;3.24;49.16
64294;BME280;50636;45.596;5.258;2023-02-28T05:07:15;98930.06;;;3.54;48.83
64294;BME280;50636;45.596;5.258;2023-02-28T05:09:42;98933.16;;;3.76;48.50
64294;BME280;50636;45.596;5.258;2023-02-28T05:12:14;98939.28;;;3.93;48.34
64294;BME280;50636;45.596;5.258;2023-02-28T05:14:55;98952.00;;;4.04;48.01
64294;BME280;50636;45.596;5.258;2023-02-28T05:17:27;98947.66;;;4.05;47.44
64294;BME280;50636;45.596;5.258;2023-02-28T05:19:53;98947.69;;;3.87;47.86
64294;BME280;50636;45.596;5.258;2023-02-28T05:22:19;98950.50;;;3.93;48.17
64294;BME280;50636;45.596;5.258;2023-02-28T05:24:47;98956.97;;;4.15;48.10
64294;BME280;50636;45.596;5.258;2023-02-28T05:27:18;98955.50;;;4.39;48.04
64294;BME280;50636;45.596;5.258;2023-02-28T05:29:57;98949.16;;;4.68;46.99
64294;BME280;50636;45.596;5.258;2023-02-28T05:32:23;98950.38;;;4.90;47.07
64294;BME280;50636;45.596;5.258;2023-02-28T05:34:50;98951.69;;;4.94;46.31
64294;BME280;50636;45.596;5.258;2023-02-28T05:37:20;98957.19;;;4.91;46.41
64294;BME280;50636;45.596;5.258;2023-02-28T05:39:46;98957.47;;;4.79;46.49
64294;BME280;50636;45.596;5.258;2023-02-28T05:42:13;98963.09;;;4.67;46.32
64294;BME280;50636;45.596;5.258;2023-02-28T05:44:40;98959.31;;;4.53;46.54
64294;BME280;50636;45.596;5.258;2023-02-28T05:47:06;98966.09;;;4.46;47.56
64294;BME280;50636;45.596;5.258;2023-02-28T05:49:33;98965.31;;;4.53;47.14
64294;BME280;50636;45.596;5.258;2023-02-28T05:52:16;98961.91;;;4.53;47.65
64294;BME280;50636;45.596;5.258;2023-02-28T05:54:43;98955.25;;;4.58;47.00
64294;BME280;50636;45.596;5.258;2023-02-28T05:57:08;98964.22;;;4.64;46.78
64294;BME280;50636;45.596;5.258;2023-02-28T05:59:38;98958.22;;;4.64;46.58
64294;BME280;50636;45.596;5.258;2023-02-28T06:02:29;98962.41;;;4.56;46.00
64294;BME280;50636;45.596;5.258;2023-02-28T06:04:55;98955.84;;;4.44;46.54
64294;BME280;50636;45.596;5.258;2023-02-28T06:07:22;98964.75;;;4.42;45.96
64294;BME280;50636;45.596;5.258;2023-02-28T06:10:06;98957.13;;;4.40;46.60
64294;BME280;50636;45.596;5.258;2023-02-28T06:12:43;98959.34;;;4.61;46.65
64294;BME280;50636;45.596;5.258;2023-02-28T06:15:13;98955.50;;;4.73;46.46
64294;BME280;50636;45.596;5.258;2023-02-28T06:17:53;98958.44;;;4.78;46.10
64294;BME280;50636;45.596;5.258;2023-02-28T06:20:19;98960.78;;;4.55;45.96
64294;BME280;50636;45.596;5.258;2023-02-28T06:22:47;98957.44;;;4.37;46.17
64294;BME280;50636;45.596;5.258;2023-02-28T06:25:13;98963.34;;;4.21;46.91
64294;BME280;50636;45.596;5.258;2023-02-28T06:27:40;98956.25;;;4.05;46.72
64294;BME280;50636;45.596;5.258;2023-02-28T06:30:08;98966.97;;;3.66;46.73
64294;BME280;50636;45.596;5.258;2023-02-28T06:32:36;98966.81;;;3.32;47.64
64294;BME280;50636;45.596;5.258;2023-02-28T06:35:02;98972.38;;;3.37;48.56
64294;BME280;50636;45.596;5.258;2023-02-28T06:37:32;98972.47;;;3.63;49.62
64294;BME280;50636;45.596;5.258;2023-02-28T06:39:59;98972.91;;;3.94;48.29
64294;BME280;50636;45.596;5.258;2023-02-28T06:42:26;98976.19;;;4.23;48.63
64294;BME280;50636;45.596;5.258;2023-02-28T06:44:55;98985.13;;;4.54;48.10
64294;BME280;50636;45.596;5.258;2023-02-28T06:47:24;98987.81;;;4.71;47.42
64294;BME280;50636;45.596;5.258;2023-02-28T06:49:51;98983.63;;;4.78;46.74
64294;BME280;50636;45.596;5.258;2023-02-28T06:52:18;98987.88;;;4.79;46.55
64294;BME280;50636;45.596;5.258;2023-02-28T06:54:45;98983.63;;;4.78;46.12
64294;BME280;50636;45.596;5.258;2023-02-28T06:57:12;98994.16;;;4.42;45.41
64294;BME280;50636;45.596;5.258;2023-02-28T06:59:39;99000.69;;;4.02;46.43
64294;BME280;50636;45.596;5.258;2023-02-28T07:02:08;99001.53;;;4.03;47.34
64294;BME280;50636;45.596;5.258;2023-02-28T07:04:35;99000.00;;;4.18;47.34
64294;BME280;50636;45.596;5.258;2023-02-28T07:07:02;99000.28;;;4.33;46.70
64294;BME280;50636;45.596;5.258;2023-02-28T07:09:29;99013.28;;;4.33;46.08
64294;BME280;50636;45.596;5.258;2023-02-28T07:11:56;99012.75;;;4.29;46.08
64294;BME280;50636;45.596;5.258;2023-02-28T07:14:23;99018.25;;;4.26;46.53
64294;BME280;50636;45.596;5.258;2023-02-28T07:16:50;99028.63;;;4.26;46.36
64294;BME280;50636;45.596;5.258;2023-02-28T07:19:28;99030.28;;;4.27;45.90
64294;BME280;50636;45.596;5.258;2023-02-28T07:21:58;99026.78;;;4.18;45.76
64294;BME280;50636;45.596;5.258;2023-02-28T07:24:24;99035.09;;;4.22;45.94
64294;BME280;50636;45.596;5.258;2023-02-28T07:26:54;99032.56;;;4.30;45.57
64294;BME280;50636;45.596;5.258;2023-02-28T07:29:35;99031.16;;;4.36;45.65
64294;BME280;50636;45.596;5.258;2023-02-28T07:32:08;99039.31;;;4.41;46.62
64294;BME280;50636;45.596;5.258;2023-02-28T07:34:49;99029.94;;;4.48;45.58
64294;BME280;50636;45.596;5.258;2023-02-28T07:37:16;99033.41;;;4.31;46.06
64294;BME280;50636;45.596;5.258;2023-02-28T07:39:42;99036.69;;;4.15;45.82
64294;BME280;50636;45.596;5.258;2023-02-28T07:42:26;99037.72;;;4.04;46.09
64294;BME280;50636;45.596;5.258;2023-02-28T07:45:05;99037.66;;;3.96;46.45
64294;BME280;50636;45.596;5.258;2023-02-28T07:47:32;99042.63;;;3.89;46.65
64294;BME280;50636;45.596;5.258;2023-02-28T07:50:16;99038.97;;;4.00;47.26
64294;BME280;50636;45.596;5.258;2023-02-28T07:52:43;99043.84;;;4.39;47.06
64294;BME280;50636;45.596;5.258;2023-02-28T07:55:29;99042.72;;;4.94;46.11
64294;BME280;50636;45.596;5.258;2023-02-28T07:57:57;99036.03;;;5.34;45.33
64294;BME280;50636;45.596;5.258;2023-02-28T08:00:25;99032.22;;;5.71;43.78
64294;BME280;50636;45.596;5.258;2023-02-28T08:03:12;99036.69;;;6.03;43.10
64294;BME280;50636;45.596;5.258;2023-02-28T08:06:32;99049.06;;;6.34;42.18
64294;BME280;50636;45.596;5.258;2023-02-28T08:09:20;99037.66;;;6.43;42.17
64294;BME280;50636;45.596;5.258;2023-02-28T08:11:47;99032.06;;;6.71;41.66
64294;BME280;50636;45.596;5.258;2023-02-28T08:14:13;99028.59;;;6.87;39.98
64294;BME280;50636;45.596;5.258;2023-02-28T08:16:43;99025.81;;;6.96;40.20
64294;BME280;50636;45.596;5.258;2023-02-28T08:19:10;99016.91;;;7.14;39.73
64294;BME280;50636;45.596;5.258;2023-02-28T08:21:37;99030.25;;;7.27;39.39
64294;BME280;50636;45.596;5.258;2023-02-28T08:24:05;99034.94;;;7.32;40.16
64294;BME280;50636;45.596;5.258;2023-02-28T08:26:32;99041.06;;;7.47;39.58
64294;BME280;50636;45.596;5.258;2023-02-28T08:28:59;99032.88;;;7.82;39.58
64294;BME280;50636;45.596;5.258;2023-02-28T08:31:26;99044.25;;;8.12;39.10
64294;BME280;50636;45.596;5.258;2023-02-28T08:33:54;99053.69;;;8.36;37.79
64294;BME280;50636;45.596;5.258;2023-02-28T08:36:42;99049.91;;;8.38;38.50
64294;BME280;50636;45.596;5.258;2023-02-28T08:39:23;99053.56;;;8.52;38.25
64294;BME280;50636;45.596;5.258;2023-02-28T08:42:00;99050.31;;;8.50;37.18
64294;BME280;50636;45.596;5.258;2023-02-28T08:44:27;99055.84;;;8.55;37.07
64294;BME280;50636;45.596;5.258;2023-02-28T08:47:09;99050.88;;;8.60;37.20
64294;BME280;50636;45.596;5.258;2023-02-28T08:49:51;99056.94;;;8.76;37.48
64294;BME280;50636;45.596;5.258;2023-02-28T08:52:37;99054.97;;;9.23;36.82
64294;BME280;50636;45.596;5.258;2023-02-28T08:55:23;99062.75;;;9.89;35.63
64294;BME280;50636;45.596;5.258;2023-02-28T08:58:03;99052.66;;;10.07;35.06
64294;BME280;50636;45.596;5.258;2023-02-28T09:00:30;99058.19;;;10.19;34.83
64294;BME280;50636;45.596;5.258;2023-02-28T09:02:57;99062.59;;;10.33;34.69
64294;BME280;50636;45.596;5.258;2023-02-28T09:05:24;99065.81;;;9.92;34.24
64294;BME280;50636;45.596;5.258;2023-02-28T09:07:56;99066.47;;;9.79;35.26
64294;BME280;50636;45.596;5.258;2023-02-28T09:10:35;99066.56;;;10.08;35.36
64294;BME280;50636;45.596;5.258;2023-02-28T09:13:03;99061.16;;;10.31;34.48
64294;BME280;50636;45.596;5.258;2023-02-28T09:15:39;99065.88;;;10.42;34.29
64294;BME280;50636;45.596;5.258;2023-02-28T09:18:05;99069.63;;;10.54;33.40
64294;BME280;50636;45.596;5.258;2023-02-28T09:20:45;99065.78;;;10.85;33.63
64294;BME280;50636;45.596;5.258;2023-02-28T09:23:27;99059.28;;;11.16;33.14
64294;BME280;50636;45.596;5.258;2023-02-28T09:26:34;99059.94;;;11.25;33.31
64294;BME280;50636;45.596;5.258;2023-02-28T09:29:15;99059.06;;;11.59;32.61
64294;BME280;50636;45.596;5.258;2023-02-28T09:31:53;99056.47;;;11.66;32.08
64294;BME280;50636;45.596;5.258;2023-02-28T09:34:21;99057.88;;;11.68;32.00
64294;BME280;50636;45.596;5.258;2023-02-28T09:37:06;99059.31;;;11.77;32.21
64294;BME280;50636;45.596;5.258;2023-02-28T09:39:33;99053.53;;;11.95;31.71
64294;BME280;50636;45.596;5.258;2023-02-28T09:42:02;99054.94;;;11.98;31.58
64294;BME280;50636;45.596;5.258;2023-02-28T09:44:35;99058.59;;;12.10;31.46
64294;BME280;50636;45.596;5.258;2023-02-28T09:49:52;99062.78;;;13.05;30.39
64294;BME280;50636;45.596;5.258;2023-02-28T09:52:21;99063.88;;;13.49;29.88
64294;BME280;50636;45.596;5.258;2023-02-28T09:54:49;99063.56;;;13.70;29.25
64294;BME280;50636;45.596;5.258;2023-02-28T10:00:38;99063.56;;;14.34;28.67
64294;BME280;50636;45.596;5.258;2023-02-28T10:03:59;99059.59;;;14.75;27.52
64294;BME280;50636;45.596;5.258;2023-02-28T10:06:57;99053.50;;;15.11;27.56
64294;BME280;50636;45.596;5.258;2023-02-28T10:09:49;99058.56;;;15.13;27.10
64294;BME280;50636;45.596;5.258;2023-02-28T10:13:00;99061.06;;;14.89;26.75
64294;BME280;50636;45.596;5.258;2023-02-28T10:15:31;99069.13;;;14.76;27.37
64294;BME280;50636;45.596;5.258;2023-02-28T10:18:21;99073.81;;;14.74;27.39
64294;BME280;50636;45.596;5.258;2023-02-28T10:20:51;99073.97;;;14.29;27.08
64294;BME280;50636;45.596;5.258;2023-02-28T10:23:38;99067.69;;;14.23;28.04
64294;BME280;50636;45.596;5.258;2023-02-28T10:26:32;99070.13;;;14.50;27.75
64294;BME280;50636;45.596;5.258;2023-02-28T10:29:15;99072.09;;;14.61;27.01
64294;BME280;50636;45.596;5.258;2023-02-28T10:31:52;99070.41;;;14.67;27.63
64294;BME280;50636;45.596;5.258;2023-02-28T10:34:31;99067.97;;;15.27;26.51
64294;BME280;50636;45.596;5.258;2023-02-28T10:37:03;99071.66;;;15.08;26.66
64294;BME280;50636;45.596;5.258;2023-02-28T10:39:50;99075.19;;;14.76;26.66
64294;BME280;50636;45.596;5.258;2023-02-28T10:42:25;99081.16;;;14.72;27.23
64294;BME280;50636;45.596;5.258;2023-02-28T10:50:55;99058.75;;;15.97;25.85
64294;BME280;50636;45.596;5.258;2023-02-28T10:53:57;99073.84;;;16.08;25.57
64294;BME280;50636;45.596;5.258;2023-02-28T10:56:25;99059.50;;;16.40;24.70
64294;BME280;50636;45.596;5.258;2023-02-28T11:01:46;99049.50;;;16.53;24.42
64294;BME280;50636;45.596;5.258;2023-02-28T11:07:28;99052.38;;;16.52;24.27
64294;BME280;50636;45.596;5.258;2023-02-28T11:10:04;99045.56;;;16.21;24.48
64294;BME280;50636;45.596;5.258;2023-02-28T11:12:48;99052.41;;;15.68;24.72
64294;BME280;50636;45.596;5.258;2023-02-28T11:15:25;99053.88;;;15.33;25.09
64294;BME280;50636;45.596;5.258;2023-02-28T11:17:57;99057.16;;;15.10;26.12
64294;BME280;50636;45.596;5.258;2023-02-28T11:20:29;99059.72;;;15.17;25.71
64294;BME280;50636;45.596;5.258;2023-02-28T11:23:00;99050.66;;;16.34;25.18
64294;BME280;50636;45.596;5.258;2023-02-28T11:25:39;99043.13;;;17.54;23.83
64294;BME280;50636;45.596;5.258;2023-02-28T11:28:29;99042.59;;;17.00;23.57
64294;BME280;50636;45.596;5.258;2023-02-28T11:31:16;99047.97;;;16.10;24.47
64294;BME280;50636;45.596;5.258;2023-02-28T11:33:48;99049.19;;;15.96;25.16
64294;BME280;50636;45.596;5.258;2023-02-28T11:36:29;99048.19;;;16.09;25.05
64294;BME280;50636;45.596;5.258;2023-02-28T11:39:00;99043.97;;;15.59;24.89
64294;BME280;50636;45.596;5.258;2023-02-28T11:44:54;99047.00;;;14.20;26.86
64294;BME280;50636;45.596;5.258;2023-02-28T11:50:46;99043.09;;;13.07;27.88
64294;BME280;50636;45.596;5.258;2023-02-28T12:02:01;99035.44;;;12.86;29.09
64294;BME280;50636;45.596;5.258;2023-02-28T12:10:30;99026.47;;;13.20;28.76
64294;BME280;50636;45.596;5.258;2023-02-28T12:16:17;99010.03;;;13.18;28.57
64294;BME280;50636;45.596;5.258;2023-02-28T12:19:25;99012.69;;;13.11;28.90
64294;BME280;50636;45.596;5.258;2023-02-28T12:27:55;98995.84;;;12.34;29.93
64294;BME280;50636;45.596;5.258;2023-02-28T12:30:34;99005.75;;;12.45;30.65
64294;BME280;50636;45.596;5.258;2023-02-28T12:33:10;99006.75;;;12.51;29.98
64294;BME280;50636;45.596;5.258;2023-02-28T12:35:53;99008.81;;;12.42;30.27
64294;BME280;50636;45.596;5.258;2023-02-28T12:38:28;98995.81;;;12.47;30.75
64294;BME280;50636;45.596;5.258;2023-02-28T12:43:31;98992.97;;;12.62;30.02
64294;BME280;50636;45.596;5.258;2023-02-28T12:49:39;98989.75;;;12.53;30.57
64294;BME280;50636;45.596;5.258;2023-02-28T12:52:13;98986.50;;;12.58;30.27
64294;BME280;50636;45.596;5.258;2023-02-28T12:58:17;98996.06;;;11.92;30.71
64294;BME280;50636;45.596;5.258;2023-02-28T13:04:07;98993.78;;;11.76;31.88
64294;BME280;50636;45.596;5.258;2023-02-28T13:09:39;98981.28;;;11.91;31.55
64294;BME280;50636;45.596;5.258;2023-02-28T13:12:16;98980.47;;;12.04;31.22
64294;BME280;50636;45.596;5.258;2023-02-28T13:14:43;98978.06;;;12.09;30.83
64294;BME280;50636;45.596;5.258;2023-02-28T13:17:11;98975.00;;;12.12;31.09
64294;BME280;50636;45.596;5.258;2023-02-28T13:19:56;98971.34;;;12.27;30.21
64294;BME280;50636;45.596;5.258;2023-02-28T13:22:45;98985.53;;;12.19;30.34
64294;BME280;50636;45.596;5.258;2023-02-28T13:31:05;98966.63;;;12.69;30.18
64294;BME280;50636;45.596;5.258;2023-02-28T13:33:37;98966.66;;;12.62;30.16
64294;BME280;50636;45.596;5.258;2023-02-28T13:36:30;98966.66;;;12.55;29.97
64294;BME280;50636;45.596;5.258;2023-02-28T13:39:03;98963.84;;;12.50;30.63
64294;BME280;50636;45.596;5.258;2023-02-28T13:44:15;98963.78;;;12.70;30.26
64294;BME280;50636;45.596;5.258;2023-02-28T13:49:40;98957.69;;;12.76;30.09
64294;BME280;50636;45.596;5.258;2023-02-28T13:54:54;98944.69;;;12.82;30.24
64294;BME280;50636;45.596;5.258;2023-02-28T13:57:39;98944.25;;;12.98;29.99
64294;BME280;50636;45.596;5.258;2023-02-28T14:07:08;98947.72;;;12.85;30.70
64294;BME280;50636;45.596;5.258;2023-02-28T14:10:15;98943.06;;;12.87;29.95
64294;BME280;50636;45.596;5.258;2023-02-28T14:16:45;98935.97;;;12.16;30.51
64294;BME280;50636;45.596;5.258;2023-02-28T14:19:28;98943.59;;;11.57;31.52
64294;BME280;50636;45.596;5.258;2023-02-28T14:22:05;98940.28;;;11.22;32.10
64294;BME280;50636;45.596;5.258;2023-02-28T14:27:37;98937.75;;;10.81;32.97
64294;BME280;50636;45.596;5.258;2023-02-28T14:33:15;98934.72;;;10.90;33.69
64294;BME280;50636;45.596;5.258;2023-02-28T14:39:21;98950.84;;;11.35;33.36
64294;BME280;50636;45.596;5.258;2023-02-28T14:41:49;98947.81;;;11.38;32.91
64294;BME280;50636;45.596;5.258;2023-02-28T14:44:21;98950.19;;;11.27;33.02
64294;BME280;50636;45.596;5.258;2023-02-28T14:46:51;98950.78;;;11.09;33.15
64294;BME280;50636;45.596;5.258;2023-02-28T14:49:42;98949.91;;;10.95;33.41
64294;BME280;50636;45.596;5.258;2023-02-28T14:52:30;98947.91;;;10.97;33.52
64294;BME280;50636;45.596;5.258;2023-02-28T14:55:47;98946.50;;;11.01;33.69
64294;BME280;50636;45.596;5.258;2023-02-28T14:57:54;98948.28;;;10.94;33.31
64294;BME280;50636;45.596;5.258;2023-02-28T15:00:29;98953.84;;;10.71;33.37
64294;BME280;50636;45.596;5.258;2023-02-28T15:02:58;98951.13;;;10.57;33.89
64294;BME280;50636;45.596;5.258;2023-02-28T15:05:31;98942.03;;;10.53;34.10
64294;BME280;50636;45.596;5.258;2023-02-28T15:08:16;98951.28;;;10.49;34.22
64294;BME280;50636;45.596;5.258;2023-02-28T15:10:45;98951.28;;;10.49;34.58
64294;BME280;50636;45.596;5.258;2023-02-28T15:13:36;98959.31;;;10.41;34.69
64294;BME280;50636;45.596;5.258;2023-02-28T15:16:30;98956.84;;;10.33;35.13
64294;BME280;50636;45.596;5.258;2023-02-28T15:19:01;98950.59;;;10.34;35.25
64294;BME280;50636;45.596;5.258;2023-02-28T15:21:39;98944.72;;;10.32;34.81
64294;BME280;50636;45.596;5.258;2023-02-28T15:27:30;98957.63;;;10.05;35.35
64294;BME280;50636;45.596;5.258;2023-02-28T15:30:30;98956.97;;;9.96;35.99
64294;BME280;50636;45.596;5.258;2023-02-28T15:33:26;98950.19;;;10.09;36.11
64294;BME280;50636;45.596;5.258;2023-02-28T15:36:15;98948.00;;;10.12;35.52
64294;BME280;50636;45.596;5.258;2023-02-28T15:38:44;98958.41;;;10.06;35.69
64294;BME280;50636;45.596;5.258;2023-02-28T15:41:37;98955.56;;;10.00;35.94
64294;BME280;50636;45.596;5.258;2023-02-28T15:44:33;98956.97;;;9.75;35.70
64294;BME280;50636;45.596;5.258;2023-02-28T15:47:32;98957.97;;;9.52;36.48
64294;BME280;50636;45.596;5.258;2023-02-28T15:50:22;98958.00;;;9.37;36.74
64294;BME280;50636;45.596;5.258;2023-02-28T15:52:54;98958.50;;;9.26;37.00
64294;BME280;50636;45.596;5.258;2023-02-28T15:55:35;98957.66;;;9.04;37.26
64294;BME280;50636;45.596;5.258;2023-02-28T15:58:05;98961.56;;;8.93;37.90
64294;BME280;50636;45.596;5.258;2023-02-28T16:00:34;98951.78;;;8.87;37.88
64294;BME280;50636;45.596;5.258;2023-02-28T16:03:26;98962.47;;;8.71;38.72
64294;BME280;50636;45.596;5.258;2023-02-28T16:08:57;98971.84;;;8.80;38.34
64294;BME280;50636;45.596;5.258;2023-02-28T16:11:24;98968.16;;;8.74;38.30
64294;BME280;50636;45.596;5.258;2023-02-28T16:13:52;98968.69;;;8.70;38.70
64294;BME280;50636;45.596;5.258;2023-02-28T16:16:23;98961.47;;;8.72;38.94
64294;BME280;50636;45.596;5.258;2023-02-28T16:18:50;98966.44;;;8.67;38.93
64294;BME280;50636;45.596;5.258;2023-02-28T16:21:17;98964.19;;;8.64;39.21
64294;BME280;50636;45.596;5.258;2023-02-28T16:23:44;98970.41;;;8.63;39.76
64294;BME280;50636;45.596;5.258;2023-02-28T16:26:21;98976.81;;;8.75;38.70